sensor_id;sensor_type;location;lat;lon;timestamp;P1;durP1;ratioP1;P2;durP2;ratioP2
26502;SDS011;14177;51.520;6.764;2023-03-16T00:02:03;10.80;;;2.47;;
26502;SDS011;14177;51.520;6.764;2023-03-16T00:04:31;7.40;;;2.20;;
26502;SDS011;14177;51.520;6.764;2023-03-16T00:07:03;4.22;;;2.33;;
26502;SDS011;14177;51.520;6.764;2023-03-16T00:09:37;3.67;;;2.40;;
26502;SDS011;14177;51.520;6.764;2023-03-16T00:12:11;3.97;;;2.28;;
26502;SDS011;14177;51.520;6.764;2023-03-16T00:14:42;5.03;;;2.65;;
26502;SDS011;14177;51.520;6.764;2023-03-16T00:17:12;5.78;;;2.35;;
26502;SDS011;14177;51.520;6.764;2023-03-16T00:19:45;3.47;;;2.38;;
26502;SDS011;14177;51.520;6.764;2023-03-16T00:22:21;6.15;;;2.58;;
26502;SDS011;14177;51.520;6.764;2023-03-16T00:24:54;5.00;;;2.08;;
26502;SDS011;14177;51.520;6.764;2023-03-16T00:27:23;5.47;;;2.20;;
26502;SDS011;14177;51.520;6.764;2023-03-16T00:29:51;4.25;;;1.80;;
26502;SDS011;14177;51.520;6.764;2023-03-16T00:32:27;4.43;;;2.22;;
26502;SDS011;14177;51.520;6.764;2023-03-16T00:35:00;5.38;;;2.00;;
26502;SDS011;14177;51.520;6.764;2023-03-16T00:37:29;3.60;;;2.10;;
26502;SDS011;14177;51.520;6.764;2023-03-16T00:40:00;4.70;;;2.42;;
26502;SDS011;14177;51.520;6.764;2023-03-16T00:42:28;6.20;;;2.30;;
26502;SDS011;14177;51.520;6.764;2023-03-16T00:44:57;5.13;;;2.20;;
26502;SDS011;14177;51.520;6.764;2023-03-16T00:47:26;3.20;;;2.00;;
26502;SDS011;14177;51.520;6.764;2023-03-16T00:49:59;6.93;;;2.33;;
26502;SDS011;14177;51.520;6.764;2023-03-16T00:52:28;3.50;;;2.13;;
26502;SDS011;14177;51.520;6.764;2023-03-16T00:54:56;6.47;;;2.25;;
26502;SDS011;14177;51.520;6.764;2023-03-16T00:57:25;7.32;;;1.90;;
26502;SDS011;14177;51.520;6.764;2023-03-16T00:59:56;7.88;;;2.25;;
26502;SDS011;14177;51.520;6.764;2023-03-16T01:02:22;3.80;;;2.20;;
26502;SDS011;14177;51.520;6.764;2023-03-16T01:04:52;4.15;;;1.90;;
26502;SDS011;14177;51.520;6.764;2023-03-16T01:07:20;4.63;;;1.80;;
26502;SDS011;14177;51.520;6.764;2023-03-16T01:09:47;3.00;;;2.10;;
26502;SDS011;14177;51.520;6.764;2023-03-16T01:12:15;6.13;;;2.38;;
26502;SDS011;14177;51.520;6.764;2023-03-16T01:14:44;7.60;;;2.10;;
26502;SDS011;14177;51.520;6.764;2023-03-16T01:17:12;6.55;;;2.08;;
26502;SDS011;14177;51.520;6.764;2023-03-16T01:19:41;4.88;;;1.77;;
26502;SDS011;14177;51.520;6.764;2023-03-16T01:22:09;4.03;;;1.98;;
26502;SDS011;14177;51.520;6.764;2023-03-16T01:24:37;4.28;;;2.10;;
26502;SDS011;14177;51.520;6.764;2023-03-16T01:27:06;4.15;;;2.05;;
26502;SDS011;14177;51.520;6.764;2023-03-16T01:29:34;5.75;;;1.98;;
26502;SDS011;14177;51.520;6.764;2023-03-16T01:32:03;3.60;;;2.10;;
26502;SDS011;14177;51.520;6.764;2023-03-16T01:34:31;3.60;;;1.83;;
26502;SDS011;14177;51.520;6.764;2023-03-16T01:36:59;3.25;;;1.75;;
26502;SDS011;14177;51.520;6.764;2023-03-16T01:39:49;4.68;;;1.85;;
26502;SDS011;14177;51.520;6.764;2023-03-16T01:42:16;3.28;;;1.95;;
26502;SDS011;14177;51.520;6.764;2023-03-16T01:44:56;7.75;;;1.85;;
26502;SDS011;14177;51.520;6.764;2023-03-16T01:47:36;4.35;;;2.30;;
26502;SDS011;14177;51.520;6.764;2023-03-16T01:50:04;6.22;;;3.38;;
26502;SDS011;14177;51.520;6.764;2023-03-16T01:52:35;4.15;;;2.22;;
26502;SDS011;14177;51.520;6.764;2023-03-16T01:55:07;4.47;;;1.77;;
26502;SDS011;14177;51.520;6.764;2023-03-16T01:57:41;2.22;;;1.55;;
26502;SDS011;14177;51.520;6.764;2023-03-16T02:00:13;2.17;;;1.60;;
26502;SDS011;14177;51.520;6.764;2023-03-16T02:02:55;2.22;;;1.90;;
26502;SDS011;14177;51.520;6.764;2023-03-16T02:06:00;2.47;;;1.48;;
26502;SDS011;14177;51.520;6.764;2023-03-16T02:08:35;3.03;;;1.80;;
26502;SDS011;14177;51.520;6.764;2023-03-16T02:11:05;4.38;;;1.95;;
26502;SDS011;14177;51.520;6.764;2023-03-16T02:13:43;3.92;;;1.55;;
26502;SDS011;14177;51.520;6.764;2023-03-16T02:16:11;3.47;;;1.85;;
26502;SDS011;14177;51.520;6.764;2023-03-16T02:18:48;3.08;;;1.77;;
26502;SDS011;14177;51.520;6.764;2023-03-16T02:21:28;2.55;;;1.70;;
26502;SDS011;14177;51.520;6.764;2023-03-16T02:24:04;4.53;;;1.80;;
26502;SDS011;14177;51.520;6.764;2023-03-16T02:29:27;5.65;;;1.83;;
26502;SDS011;14177;51.520;6.764;2023-03-16T02:32:12;4.00;;;2.10;;
26502;SDS011;14177;51.520;6.764;2023-03-16T02:34:40;3.55;;;2.00;;
26502;SDS011;14177;51.520;6.764;2023-03-16T02:37:08;2.53;;;1.60;;
26502;SDS011;14177;51.520;6.764;2023-03-16T02:39:38;3.42;;;1.70;;
26502;SDS011;14177;51.520;6.764;2023-03-16T02:42:12;2.17;;;1.80;;
26502;SDS011;14177;51.520;6.764;2023-03-16T02:44:45;3.22;;;2.10;;
26502;SDS011;14177;51.520;6.764;2023-03-16T02:47:33;6.13;;;2.03;;
26502;SDS011;14177;51.520;6.764;2023-03-16T02:50:07;3.78;;;2.05;;
26502;SDS011;14177;51.520;6.764;2023-03-16T02:52:37;4.07;;;1.77;;
26502;SDS011;14177;51.520;6.764;2023-03-16T02:55:06;2.88;;;1.70;;
26502;SDS011;14177;51.520;6.764;2023-03-16T02:57:34;7.45;;;2.75;;
26502;SDS011;14177;51.520;6.764;2023-03-16T03:00:07;2.78;;;1.50;;
26502;SDS011;14177;51.520;6.764;2023-03-16T03:02:40;4.68;;;1.85;;
26502;SDS011;14177;51.520;6.764;2023-03-16T03:05:07;3.97;;;2.10;;
26502;SDS011;14177;51.520;6.764;2023-03-16T03:07:35;2.85;;;1.77;;
26502;SDS011;14177;51.520;6.764;2023-03-16T03:10:04;3.63;;;2.22;;
26502;SDS011;14177;51.520;6.764;2023-03-16T03:12:32;2.55;;;1.80;;
26502;SDS011;14177;51.520;6.764;2023-03-16T03:15:02;4.63;;;1.98;;
26502;SDS011;14177;51.520;6.764;2023-03-16T03:17:37;3.10;;;1.83;;
26502;SDS011;14177;51.520;6.764;2023-03-16T03:20:04;4.85;;;2.75;;
26502;SDS011;14177;51.520;6.764;2023-03-16T03:22:43;3.65;;;2.42;;
26502;SDS011;14177;51.520;6.764;2023-03-16T03:25:14;4.22;;;2.08;;
26502;SDS011;14177;51.520;6.764;2023-03-16T03:27:44;4.40;;;2.08;;
26502;SDS011;14177;51.520;6.764;2023-03-16T03:30:16;4.30;;;2.30;;
26502;SDS011;14177;51.520;6.764;2023-03-16T03:32:46;2.03;;;1.50;;
26502;SDS011;14177;51.520;6.764;2023-03-16T03:35:15;2.22;;;1.75;;
26502;SDS011;14177;51.520;6.764;2023-03-16T03:37:42;1.90;;;1.50;;
26502;SDS011;14177;51.520;6.764;2023-03-16T03:40:12;5.63;;;1.50;;
26502;SDS011;14177;51.520;6.764;2023-03-16T03:42:46;6.43;;;1.73;;
26502;SDS011;14177;51.520;6.764;2023-03-16T03:45:14;4.47;;;1.92;;
26502;SDS011;14177;51.520;6.764;2023-03-16T03:47:42;3.10;;;1.83;;
26502;SDS011;14177;51.520;6.764;2023-03-16T03:50:14;3.72;;;1.75;;
26502;SDS011;14177;51.520;6.764;2023-03-16T03:52:51;2.33;;;1.45;;
26502;SDS011;14177;51.520;6.764;2023-03-16T03:55:18;7.68;;;2.05;;
26502;SDS011;14177;51.520;6.764;2023-03-16T03:57:45;2.47;;;1.80;;
26502;SDS011;14177;51.520;6.764;2023-03-16T04:00:12;5.15;;;2.75;;
26502;SDS011;14177;51.520;6.764;2023-03-16T04:02:41;4.65;;;1.95;;
26502;SDS011;14177;51.520;6.764;2023-03-16T04:05:17;2.20;;;1.70;;
26502;SDS011;14177;51.520;6.764;2023-03-16T04:07:44;4.78;;;1.88;;
26502;SDS011;14177;51.520;6.764;2023-03-16T04:10:12;2.38;;;1.58;;
26502;SDS011;14177;51.520;6.764;2023-03-16T04:12:41;2.63;;;1.70;;
26502;SDS011;14177;51.520;6.764;2023-03-16T04:15:10;2.63;;;1.60;;
26502;SDS011;14177;51.520;6.764;2023-03-16T04:17:47;5.60;;;1.70;;
26502;SDS011;14177;51.520;6.764;2023-03-16T04:20:15;2.88;;;1.77;;
26502;SDS011;14177;51.520;6.764;2023-03-16T04:22:45;3.15;;;1.75;;
26502;SDS011;14177;51.520;6.764;2023-03-16T04:25:14;2.30;;;1.73;;
26502;SDS011;14177;51.520;6.764;2023-03-16T04:27:44;3.58;;;2.00;;
26502;SDS011;14177;51.520;6.764;2023-03-16T04:30:13;3.78;;;2.15;;
26502;SDS011;14177;51.520;6.764;2023-03-16T04:32:45;4.57;;;2.03;;
26502;SDS011;14177;51.520;6.764;2023-03-16T04:35:16;3.38;;;2.15;;
26502;SDS011;14177;51.520;6.764;2023-03-16T04:37:51;4.13;;;1.52;;
26502;SDS011;14177;51.520;6.764;2023-03-16T04:40:23;2.58;;;1.75;;
26502;SDS011;14177;51.520;6.764;2023-03-16T04:43:00;3.30;;;2.13;;
26502;SDS011;14177;51.520;6.764;2023-03-16T04:45:29;3.10;;;1.70;;
26502;SDS011;14177;51.520;6.764;2023-03-16T04:47:58;4.70;;;1.95;;
26502;SDS011;14177;51.520;6.764;2023-03-16T04:50:26;2.90;;;1.90;;
26502;SDS011;14177;51.520;6.764;2023-03-16T04:52:53;3.95;;;2.00;;
26502;SDS011;14177;51.520;6.764;2023-03-16T04:55:20;3.10;;;1.80;;
26502;SDS011;14177;51.520;6.764;2023-03-16T04:57:49;3.97;;;1.98;;
26502;SDS011;14177;51.520;6.764;2023-03-16T05:00:19;2.95;;;2.05;;
26502;SDS011;14177;51.520;6.764;2023-03-16T05:02:55;5.20;;;2.13;;
26502;SDS011;14177;51.520;6.764;2023-03-16T05:05:22;4.47;;;2.42;;
26502;SDS011;14177;51.520;6.764;2023-03-16T05:07:49;4.10;;;2.20;;
26502;SDS011;14177;51.520;6.764;2023-03-16T05:10:17;5.43;;;2.60;;
26502;SDS011;14177;51.520;6.764;2023-03-16T05:12:45;3.20;;;2.22;;
26502;SDS011;14177;51.520;6.764;2023-03-16T05:15:13;4.50;;;2.10;;
26502;SDS011;14177;51.520;6.764;2023-03-16T05:17:42;7.15;;;2.55;;
26502;SDS011;14177;51.520;6.764;2023-03-16T05:20:12;3.88;;;2.40;;
26502;SDS011;14177;51.520;6.764;2023-03-16T05:22:47;2.67;;;1.95;;
26502;SDS011;14177;51.520;6.764;2023-03-16T05:25:34;3.38;;;2.30;;
26502;SDS011;14177;51.520;6.764;2023-03-16T05:28:04;2.65;;;2.28;;
26502;SDS011;14177;51.520;6.764;2023-03-16T05:30:37;2.65;;;2.15;;
26502;SDS011;14177;51.520;6.764;2023-03-16T05:33:08;7.57;;;2.60;;
26502;SDS011;14177;51.520;6.764;2023-03-16T05:35:35;6.93;;;2.50;;
26502;SDS011;14177;51.520;6.764;2023-03-16T05:38:07;4.85;;;2.28;;
26502;SDS011;14177;51.520;6.764;2023-03-16T05:40:38;4.32;;;2.30;;
26502;SDS011;14177;51.520;6.764;2023-03-16T05:43:19;5.80;;;2.85;;
26502;SDS011;14177;51.520;6.764;2023-03-16T05:45:50;3.92;;;2.35;;
26502;SDS011;14177;51.520;6.764;2023-03-16T05:48:18;6.38;;;2.85;;
26502;SDS011;14177;51.520;6.764;2023-03-16T05:50:51;3.90;;;2.45;;
26502;SDS011;14177;51.520;6.764;2023-03-16T05:53:24;5.43;;;2.90;;
26502;SDS011;14177;51.520;6.764;2023-03-16T05:55:59;5.28;;;2.70;;
26502;SDS011;14177;51.520;6.764;2023-03-16T05:59:15;7.68;;;2.80;;
26502;SDS011;14177;51.520;6.764;2023-03-16T06:01:49;5.82;;;2.83;;
26502;SDS011;14177;51.520;6.764;2023-03-16T06:04:18;5.45;;;2.95;;
26502;SDS011;14177;51.520;6.764;2023-03-16T06:06:47;7.13;;;3.00;;
26502;SDS011;14177;51.520;6.764;2023-03-16T06:09:19;7.70;;;3.42;;
26502;SDS011;14177;51.520;6.764;2023-03-16T06:11:46;6.60;;;2.83;;
26502;SDS011;14177;51.520;6.764;2023-03-16T06:14:15;5.40;;;3.20;;
26502;SDS011;14177;51.520;6.764;2023-03-16T06:16:42;6.55;;;2.90;;
26502;SDS011;14177;51.520;6.764;2023-03-16T06:19:10;6.03;;;3.50;;
26502;SDS011;14177;51.520;6.764;2023-03-16T06:21:38;6.57;;;3.20;;
26502;SDS011;14177;51.520;6.764;2023-03-16T06:24:08;4.57;;;2.88;;
26502;SDS011;14177;51.520;6.764;2023-03-16T06:26:35;3.78;;;2.60;;
26502;SDS011;14177;51.520;6.764;2023-03-16T06:29:05;5.25;;;3.20;;
26502;SDS011;14177;51.520;6.764;2023-03-16T06:31:35;5.95;;;3.17;;
26502;SDS011;14177;51.520;6.764;2023-03-16T06:34:02;4.85;;;2.90;;
26502;SDS011;14177;51.520;6.764;2023-03-16T06:36:29;4.38;;;3.00;;
26502;SDS011;14177;51.520;6.764;2023-03-16T06:38:59;9.50;;;3.85;;
26502;SDS011;14177;51.520;6.764;2023-03-16T06:41:37;4.28;;;3.30;;
26502;SDS011;14177;51.520;6.764;2023-03-16T06:44:04;5.90;;;3.53;;
26502;SDS011;14177;51.520;6.764;2023-03-16T06:46:35;5.22;;;3.28;;
26502;SDS011;14177;51.520;6.764;2023-03-16T06:49:03;7.40;;;3.55;;
26502;SDS011;14177;51.520;6.764;2023-03-16T06:51:31;5.90;;;3.13;;
26502;SDS011;14177;51.520;6.764;2023-03-16T06:53:58;8.15;;;3.40;;
26502;SDS011;14177;51.520;6.764;2023-03-16T06:56:25;4.18;;;2.63;;
26502;SDS011;14177;51.520;6.764;2023-03-16T06:58:54;5.93;;;3.83;;
26502;SDS011;14177;51.520;6.764;2023-03-16T07:01:21;7.40;;;3.15;;
26502;SDS011;14177;51.520;6.764;2023-03-16T07:03:48;8.55;;;3.60;;
26502;SDS011;14177;51.520;6.764;2023-03-16T07:06:20;7.20;;;3.58;;
26502;SDS011;14177;51.520;6.764;2023-03-16T07:08:47;8.52;;;3.50;;
26502;SDS011;14177;51.520;6.764;2023-03-16T07:11:15;7.22;;;3.35;;
26502;SDS011;14177;51.520;6.764;2023-03-16T07:13:42;6.88;;;3.58;;
26502;SDS011;14177;51.520;6.764;2023-03-16T07:16:11;6.47;;;3.25;;
26502;SDS011;14177;51.520;6.764;2023-03-16T07:18:38;7.25;;;3.53;;
26502;SDS011;14177;51.520;6.764;2023-03-16T07:21:09;6.57;;;3.35;;
26502;SDS011;14177;51.520;6.764;2023-03-16T07:23:37;5.25;;;3.10;;
26502;SDS011;14177;51.520;6.764;2023-03-16T07:26:05;6.00;;;3.38;;
26502;SDS011;14177;51.520;6.764;2023-03-16T07:28:36;4.60;;;2.60;;
26502;SDS011;14177;51.520;6.764;2023-03-16T07:31:05;5.32;;;3.20;;
26502;SDS011;14177;51.520;6.764;2023-03-16T07:33:38;4.45;;;3.17;;
26502;SDS011;14177;51.520;6.764;2023-03-16T07:36:08;5.07;;;2.45;;
26502;SDS011;14177;51.520;6.764;2023-03-16T07:38:41;10.30;;;3.05;;
26502;SDS011;14177;51.520;6.764;2023-03-16T07:41:10;4.47;;;2.65;;
26502;SDS011;14177;51.520;6.764;2023-03-16T07:43:37;4.40;;;3.00;;
26502;SDS011;14177;51.520;6.764;2023-03-16T07:46:07;4.85;;;3.08;;
26502;SDS011;14177;51.520;6.764;2023-03-16T07:48:35;4.72;;;3.25;;
26502;SDS011;14177;51.520;6.764;2023-03-16T07:51:03;6.95;;;3.47;;
26502;SDS011;14177;51.520;6.764;2023-03-16T07:53:30;4.93;;;2.88;;
26502;SDS011;14177;51.520;6.764;2023-03-16T07:56:11;5.53;;;2.88;;
26502;SDS011;14177;51.520;6.764;2023-03-16T07:58:42;7.45;;;2.83;;
26502;SDS011;14177;51.520;6.764;2023-03-16T08:01:08;6.00;;;2.97;;
26502;SDS011;14177;51.520;6.764;2023-03-16T08:03:37;7.93;;;2.80;;
26502;SDS011;14177;51.520;6.764;2023-03-16T08:06:05;5.57;;;3.08;;
26502;SDS011;14177;51.520;6.764;2023-03-16T08:08:33;4.88;;;2.92;;
26502;SDS011;14177;51.520;6.764;2023-03-16T08:11:00;4.72;;;2.75;;
26502;SDS011;14177;51.520;6.764;2023-03-16T08:13:38;6.03;;;3.13;;
26502;SDS011;14177;51.520;6.764;2023-03-16T08:16:09;4.90;;;3.13;;
26502;SDS011;14177;51.520;6.764;2023-03-16T08:18:41;6.03;;;3.17;;
26502;SDS011;14177;51.520;6.764;2023-03-16T08:21:08;9.00;;;3.20;;
26502;SDS011;14177;51.520;6.764;2023-03-16T08:23:35;5.80;;;3.38;;
26502;SDS011;14177;51.520;6.764;2023-03-16T08:26:04;7.50;;;3.10;;
26502;SDS011;14177;51.520;6.764;2023-03-16T08:28:34;5.38;;;3.13;;
26502;SDS011;14177;51.520;6.764;2023-03-16T08:31:06;5.68;;;3.22;;
26502;SDS011;14177;51.520;6.764;2023-03-16T08:36:10;4.20;;;3.08;;
26502;SDS011;14177;51.520;6.764;2023-03-16T08:38:44;4.18;;;2.70;;
26502;SDS011;14177;51.520;6.764;2023-03-16T08:41:33;5.88;;;3.25;;
26502;SDS011;14177;51.520;6.764;2023-03-16T08:44:04;9.40;;;3.30;;
26502;SDS011;14177;51.520;6.764;2023-03-16T08:46:33;4.85;;;2.67;;
26502;SDS011;14177;51.520;6.764;2023-03-16T08:49:01;6.07;;;3.70;;
26502;SDS011;14177;51.520;6.764;2023-03-16T08:51:28;6.18;;;2.90;;
26502;SDS011;14177;51.520;6.764;2023-03-16T08:53:56;6.20;;;3.00;;
26502;SDS011;14177;51.520;6.764;2023-03-16T08:56:23;7.22;;;3.30;;
26502;SDS011;14177;51.520;6.764;2023-03-16T08:58:51;4.57;;;3.03;;
26502;SDS011;14177;51.520;6.764;2023-03-16T09:01:18;6.50;;;3.08;;
26502;SDS011;14177;51.520;6.764;2023-03-16T09:03:45;5.10;;;3.38;;
26502;SDS011;14177;51.520;6.764;2023-03-16T09:06:14;4.38;;;3.15;;
26502;SDS011;14177;51.520;6.764;2023-03-16T09:08:42;8.88;;;3.40;;
26502;SDS011;14177;51.520;6.764;2023-03-16T09:11:12;8.48;;;3.67;;
26502;SDS011;14177;51.520;6.764;2023-03-16T09:13:42;4.65;;;3.35;;
26502;SDS011;14177;51.520;6.764;2023-03-16T09:16:10;4.82;;;3.03;;
26502;SDS011;14177;51.520;6.764;2023-03-16T09:18:39;8.18;;;3.63;;
26502;SDS011;14177;51.520;6.764;2023-03-16T09:21:08;4.88;;;2.95;;
26502;SDS011;14177;51.520;6.764;2023-03-16T09:23:39;9.52;;;3.72;;
26502;SDS011;14177;51.520;6.764;2023-03-16T09:26:08;6.45;;;3.38;;
26502;SDS011;14177;51.520;6.764;2023-03-16T09:28:38;7.32;;;3.63;;
26502;SDS011;14177;51.520;6.764;2023-03-16T09:31:08;7.28;;;3.50;;
26502;SDS011;14177;51.520;6.764;2023-03-16T09:33:42;7.13;;;3.70;;
26502;SDS011;14177;51.520;6.764;2023-03-16T09:36:09;8.70;;;3.80;;
26502;SDS011;14177;51.520;6.764;2023-03-16T09:38:37;6.18;;;3.42;;
26502;SDS011;14177;51.520;6.764;2023-03-16T09:41:48;5.18;;;3.50;;
26502;SDS011;14177;51.520;6.764;2023-03-16T09:44:28;6.47;;;3.35;;
26502;SDS011;14177;51.520;6.764;2023-03-16T09:47:13;4.88;;;3.10;;
26502;SDS011;14177;51.520;6.764;2023-03-16T09:49:43;6.25;;;3.58;;
26502;SDS011;14177;51.520;6.764;2023-03-16T09:52:19;7.68;;;3.35;;
26502;SDS011;14177;51.520;6.764;2023-03-16T09:54:54;5.13;;;3.47;;
26502;SDS011;14177;51.520;6.764;2023-03-16T09:57:45;10.15;;;3.40;;
26502;SDS011;14177;51.520;6.764;2023-03-16T10:00:26;7.03;;;3.28;;
26502;SDS011;14177;51.520;6.764;2023-03-16T10:03:21;7.57;;;3.13;;
26502;SDS011;14177;51.520;6.764;2023-03-16T10:06:31;5.63;;;3.30;;
26502;SDS011;14177;51.520;6.764;2023-03-16T10:11:46;5.07;;;3.03;;
26502;SDS011;14177;51.520;6.764;2023-03-16T10:14:27;7.18;;;3.42;;
26502;SDS011;14177;51.520;6.764;2023-03-16T10:17:20;5.85;;;3.40;;
26502;SDS011;14177;51.520;6.764;2023-03-16T10:20:09;7.03;;;2.92;;
26502;SDS011;14177;51.520;6.764;2023-03-16T10:22:43;4.32;;;3.00;;
26502;SDS011;14177;51.520;6.764;2023-03-16T10:28:00;8.05;;;3.50;;
26502;SDS011;14177;51.520;6.764;2023-03-16T10:33:21;4.25;;;2.45;;
26502;SDS011;14177;51.520;6.764;2023-03-16T10:36:03;5.95;;;3.38;;
26502;SDS011;14177;51.520;6.764;2023-03-16T10:41:38;5.35;;;3.25;;
26502;SDS011;14177;51.520;6.764;2023-03-16T10:44:26;7.80;;;3.08;;
26502;SDS011;14177;51.520;6.764;2023-03-16T10:46:59;5.85;;;3.05;;
26502;SDS011;14177;51.520;6.764;2023-03-16T10:49:38;4.97;;;2.80;;
26502;SDS011;14177;51.520;6.764;2023-03-16T10:57:57;6.57;;;2.60;;
26502;SDS011;14177;51.520;6.764;2023-03-16T11:00:33;5.05;;;3.05;;
26502;SDS011;14177;51.520;6.764;2023-03-16T11:03:18;8.25;;;3.28;;
26502;SDS011;14177;51.520;6.764;2023-03-16T11:06:04;8.68;;;2.75;;
26502;SDS011;14177;51.520;6.764;2023-03-16T11:08:41;6.30;;;2.97;;
26502;SDS011;14177;51.520;6.764;2023-03-16T11:11:10;6.72;;;2.78;;
26502;SDS011;14177;51.520;6.764;2023-03-16T11:13:44;5.53;;;3.13;;
26502;SDS011;14177;51.520;6.764;2023-03-16T11:19:14;4.95;;;2.47;;
26502;SDS011;14177;51.520;6.764;2023-03-16T11:21:59;4.70;;;3.00;;
26502;SDS011;14177;51.520;6.764;2023-03-16T11:33:26;3.53;;;2.20;;
26502;SDS011;14177;51.520;6.764;2023-03-16T11:36:06;5.07;;;2.20;;
26502;SDS011;14177;51.520;6.764;2023-03-16T11:42:08;4.72;;;2.10;;
26502;SDS011;14177;51.520;6.764;2023-03-16T11:44:50;3.65;;;2.00;;
26502;SDS011;14177;51.520;6.764;2023-03-16T11:47:41;5.65;;;2.15;;
26502;SDS011;14177;51.520;6.764;2023-03-16T11:51:03;4.10;;;1.92;;
26502;SDS011;14177;51.520;6.764;2023-03-16T12:04:48;4.35;;;1.98;;
26502;SDS011;14177;51.520;6.764;2023-03-16T12:07:47;5.07;;;2.20;;
26502;SDS011;14177;51.520;6.764;2023-03-16T12:10:37;3.88;;;1.80;;
26502;SDS011;14177;51.520;6.764;2023-03-16T12:13:16;2.88;;;1.70;;
26502;SDS011;14177;51.520;6.764;2023-03-16T12:16:06;3.47;;;2.10;;
26502;SDS011;14177;51.520;6.764;2023-03-16T12:19:29;5.53;;;1.95;;
26502;SDS011;14177;51.520;6.764;2023-03-16T12:21:44;3.92;;;1.92;;
26502;SDS011;14177;51.520;6.764;2023-03-16T12:24:19;3.27;;;1.87;;
26502;SDS011;14177;51.520;6.764;2023-03-16T12:26:52;5.15;;;2.20;;
26502;SDS011;14177;51.520;6.764;2023-03-16T12:32:16;4.68;;;1.90;;
26502;SDS011;14177;51.520;6.764;2023-03-16T12:35:00;5.22;;;1.88;;
26502;SDS011;14177;51.520;6.764;2023-03-16T12:49:13;5.15;;;2.00;;
26502;SDS011;14177;51.520;6.764;2023-03-16T12:51:41;4.22;;;2.13;;
26502;SDS011;14177;51.520;6.764;2023-03-16T12:54:22;4.90;;;2.20;;
26502;SDS011;14177;51.520;6.764;2023-03-16T12:56:51;7.07;;;2.33;;
26502;SDS011;14177;51.520;6.764;2023-03-16T12:59:34;3.33;;;1.98;;
26502;SDS011;14177;51.520;6.764;2023-03-16T13:02:10;6.65;;;1.73;;
26502;SDS011;14177;51.520;6.764;2023-03-16T13:05:26;3.97;;;2.20;;
26502;SDS011;14177;51.520;6.764;2023-03-16T13:08:07;5.13;;;1.75;;
26502;SDS011;14177;51.520;6.764;2023-03-16T13:10:39;3.10;;;2.03;;
26502;SDS011;14177;51.520;6.764;2023-03-16T13:13:12;5.38;;;2.55;;
26502;SDS011;14177;51.520;6.764;2023-03-16T13:15:44;6.50;;;2.38;;
26502;SDS011;14177;51.520;6.764;2023-03-16T13:20:49;5.45;;;1.80;;
26502;SDS011;14177;51.520;6.764;2023-03-16T13:23:28;6.90;;;2.17;;
26502;SDS011;14177;51.520;6.764;2023-03-16T13:31:51;4.45;;;1.80;;
26502;SDS011;14177;51.520;6.764;2023-03-16T13:34:28;4.07;;;1.50;;
26502;SDS011;14177;51.520;6.764;2023-03-16T13:36:58;4.32;;;1.70;;
26502;SDS011;14177;51.520;6.764;2023-03-16T13:39:29;3.97;;;1.77;;
26502;SDS011;14177;51.520;6.764;2023-03-16T13:42:03;5.22;;;1.75;;
26502;SDS011;14177;51.520;6.764;2023-03-16T13:44:33;5.35;;;1.45;;
26502;SDS011;14177;51.520;6.764;2023-03-16T13:47:06;3.92;;;1.60;;
26502;SDS011;14177;51.520;6.764;2023-03-16T13:49:42;2.08;;;1.40;;
26502;SDS011;14177;51.520;6.764;2023-03-16T13:52:31;4.70;;;1.67;;
26502;SDS011;14177;51.520;6.764;2023-03-16T13:55:01;4.10;;;1.80;;
26502;SDS011;14177;51.520;6.764;2023-03-16T13:57:39;2.75;;;1.48;;
26502;SDS011;14177;51.520;6.764;2023-03-16T14:02:55;3.42;;;1.30;;
26502;SDS011;14177;51.520;6.764;2023-03-16T14:05:28;3.95;;;1.63;;
26502;SDS011;14177;51.520;6.764;2023-03-16T14:07:58;3.70;;;1.42;;
26502;SDS011;14177;51.520;6.764;2023-03-16T14:10:28;4.63;;;1.50;;
26502;SDS011;14177;51.520;6.764;2023-03-16T14:15:55;2.78;;;1.48;;
26502;SDS011;14177;51.520;6.764;2023-03-16T14:18:39;1.90;;;1.20;;
26502;SDS011;14177;51.520;6.764;2023-03-16T14:21:16;3.22;;;1.25;;
26502;SDS011;14177;51.520;6.764;2023-03-16T14:23:52;3.38;;;1.50;;
26502;SDS011;14177;51.520;6.764;2023-03-16T14:26:25;7.40;;;1.40;;
26502;SDS011;14177;51.520;6.764;2023-03-16T14:29:34;2.92;;;1.20;;
26502;SDS011;14177;51.520;6.764;2023-03-16T14:31:49;3.72;;;1.20;;
26502;SDS011;14177;51.520;6.764;2023-03-16T14:34:30;7.60;;;1.42;;
26502;SDS011;14177;51.520;6.764;2023-03-16T14:37:09;4.97;;;1.40;;
26502;SDS011;14177;51.520;6.764;2023-03-16T14:39:39;2.45;;;1.30;;
26502;SDS011;14177;51.520;6.764;2023-03-16T14:42:13;1.52;;;1.15;;
26502;SDS011;14177;51.520;6.764;2023-03-16T14:44:50;4.20;;;1.27;;
26502;SDS011;14177;51.520;6.764;2023-03-16T14:47:20;1.77;;;1.00;;
26502;SDS011;14177;51.520;6.764;2023-03-16T14:49:51;3.42;;;1.23;;
26502;SDS011;14177;51.520;6.764;2023-03-16T14:54:57;2.67;;;1.08;;
26502;SDS011;14177;51.520;6.764;2023-03-16T14:57:28;1.42;;;1.00;;
26502;SDS011;14177;51.520;6.764;2023-03-16T14:59:55;4.03;;;1.10;;
26502;SDS011;14177;51.520;6.764;2023-03-16T15:02:24;4.18;;;1.23;;
26502;SDS011;14177;51.520;6.764;2023-03-16T15:04:55;5.88;;;1.75;;
26502;SDS011;14177;51.520;6.764;2023-03-16T15:07:26;3.30;;;1.45;;
26502;SDS011;14177;51.520;6.764;2023-03-16T15:12:40;4.10;;;1.27;;
26502;SDS011;14177;51.520;6.764;2023-03-16T15:15:17;2.03;;;1.10;;
26502;SDS011;14177;51.520;6.764;2023-03-16T15:17:46;6.07;;;1.40;;
26502;SDS011;14177;51.520;6.764;2023-03-16T15:20:20;4.78;;;0.93;;
26502;SDS011;14177;51.520;6.764;2023-03-16T15:22:58;4.78;;;1.52;;
26502;SDS011;14177;51.520;6.764;2023-03-16T15:25:31;3.78;;;1.17;;
26502;SDS011;14177;51.520;6.764;2023-03-16T15:28:37;4.30;;;1.25;;
26502;SDS011;14177;51.520;6.764;2023-03-16T15:30:58;4.13;;;1.17;;
26502;SDS011;14177;51.520;6.764;2023-03-16T15:33:28;2.47;;;1.30;;
26502;SDS011;14177;51.520;6.764;2023-03-16T15:35:56;2.38;;;1.10;;
26502;SDS011;14177;51.520;6.764;2023-03-16T15:40:58;1.38;;;0.93;;
26502;SDS011;14177;51.520;6.764;2023-03-16T15:43:27;3.40;;;1.52;;
26502;SDS011;14177;51.520;6.764;2023-03-16T15:45:57;5.57;;;1.88;;
26502;SDS011;14177;51.520;6.764;2023-03-16T15:48:25;3.63;;;1.30;;
26502;SDS011;14177;51.520;6.764;2023-03-16T15:50:57;6.47;;;1.88;;
26502;SDS011;14177;51.520;6.764;2023-03-16T15:56:18;5.00;;;1.80;;
26502;SDS011;14177;51.520;6.764;2023-03-16T15:58:54;3.83;;;1.60;;
26502;SDS011;14177;51.520;6.764;2023-03-16T16:01:26;6.18;;;2.00;;
26502;SDS011;14177;51.520;6.764;2023-03-16T16:04:00;3.37;;;1.77;;
26502;SDS011;14177;51.520;6.764;2023-03-16T16:06:28;3.60;;;1.52;;
26502;SDS011;14177;51.520;6.764;2023-03-16T16:08:55;6.43;;;2.78;;
26502;SDS011;14177;51.520;6.764;2023-03-16T16:11:26;2.92;;;1.38;;
26502;SDS011;14177;51.520;6.764;2023-03-16T16:13:54;4.70;;;1.13;;
26502;SDS011;14177;51.520;6.764;2023-03-16T16:16:25;3.83;;;1.13;;
26502;SDS011;14177;51.520;6.764;2023-03-16T16:18:54;3.50;;;1.33;;
26502;SDS011;14177;51.520;6.764;2023-03-16T16:21:22;4.60;;;1.35;;
26502;SDS011;14177;51.520;6.764;2023-03-16T16:23:54;4.32;;;1.45;;
26502;SDS011;14177;51.520;6.764;2023-03-16T16:26:34;4.32;;;1.65;;
26502;SDS011;14177;51.520;6.764;2023-03-16T16:29:23;4.55;;;1.58;;
26502;SDS011;14177;51.520;6.764;2023-03-16T16:31:55;2.85;;;1.15;;
26502;SDS011;14177;51.520;6.764;2023-03-16T16:34:23;2.75;;;1.40;;
26502;SDS011;14177;51.520;6.764;2023-03-16T16:36:52;4.75;;;1.20;;
26502;SDS011;14177;51.520;6.764;2023-03-16T16:39:21;3.08;;;1.30;;
26502;SDS011;14177;51.520;6.764;2023-03-16T16:41:49;5.00;;;1.30;;
26502;SDS011;14177;51.520;6.764;2023-03-16T16:44:21;3.03;;;1.40;;
26502;SDS011;14177;51.520;6.764;2023-03-16T16:46:52;4.25;;;1.30;;
26502;SDS011;14177;51.520;6.764;2023-03-16T16:49:24;2.17;;;1.30;;
26502;SDS011;14177;51.520;6.764;2023-03-16T16:51:56;2.72;;;1.20;;